Hovedside
METAR-TAF:

METAR-TAF

Lufthavner :

Banská Bystrica, Slovakia

breddegrad: 48-38-17N, lengdegrad: 019-08-03E, høyde over havet: 318 m

METAR: fraværende

Tid: 12:40 (10:40 UTC)

Varsel

Denne rapporten ble laget for 3 timer og 10 minutter siden, klokken 07:30 UTC
Varsel gyldig fra 19. klokken 09 UTC til 19. klokken 18 UTC
Vind 3 kt fra skiftende retning
Sikt 10 km eller mer
Få skyer i en høyde av 4500 ft
Blir
fra 19. klokken 09 UTC til 19. klokken 11 UTC
Vind 8 kt fra Sør-sørøst
Blir
fra 19. klokken 14 UTC til 19. klokken 16 UTC
Sikt 10 km eller mer
ingen skyer under 1500 m og ingen bygeskyer

TAF: LZSL 190730Z 1909/1918 VRB03KT 9999 FEW045 BECMG 1909/1911 16008KT BECMG 1914/1916 CAVOK

Værobservasjoner og værvarsel for over 4000 flyplasser (METAR- og TAF-rapporter).

Tilgjengelige stasjoner er representert av de røde og gule prikkene på kartet.

Hold musepekeren over prikken for å se navnet på stasjonen.

Klikk så for å se værobservasjoner og -varsler.

For å forandre kartet kan du klikke på den grønne knappen med svart kryss for å zoome inn, på den grønne knappen med strek for å zoome ut, eller på de grønne pilene for å se tilstøtende kart.


METAR-TAF: